Mabel, MN (55954)

4:28 PM CST on February 07, 2016 (GMT -0600)
Rural Winneshiek County | | Change Station
CLOSE
Current Station
Personal Weather Station
Location: Decorah, IA
Elevation: 1056 ft
Nearby Weather Stations
Active Advisory: Winter Weather Advisory

Elev 1056 ft 43.35 °N, 91.86 °W | Updated 1 minute ago

Mostly Cloudy
Mostly Cloudy
36.7 °F
Feels Like 32 °F
N
6.3
Wind Variable Wind from NW

Today
High -- | Low -- °F
--% Chance of Precip.
Yesterday
High -- | Low -- °F
Precip. -- in
Pressure 29.69 in
Visibility 10.0 miles
Clouds Clear
Windchill 32 °F
Dew Point 30 °F
Humidity 75%
Rainfall 0.11 in
Snow Depth Not available.
7:16 AM 5:26 PM
Waning Crescent, 1% visible
METAR KDEH 072215Z AUTO 27009G18KT 10SM CLR 03/M02 A2969 RMK AO2
Pressure 29.69 in
Visibility 10.0 miles
Clouds Clear
Windchill 32 °F
Dew Point 30 °F
Humidity 75%
Rainfall 0.11 in
Snow Depth Not available.
7:16 AM 5:26 PM
Waning Crescent, 1% visible
METAR KDEH 072215Z AUTO 27009G18KT 10SM CLR 03/M02 A2969 RMK AO2

10-Day Weather Forecast

Almanac

Astronomy

Feb. 07, 2016 Rise Set
Actual Time
Civil Twilight
Nautical Twilight
Astronomical Twilight
Moon
Length of Visible Light
Length of Day
Tomorrow will be .
, % of the Moon is Illuminated

Today's Extremes

State Highs State Lows

Community

WunderPhotos

Upload Photos

1,891,318 photos uploaded!

WunderBlog® & News

Nearby

Air Quality

  Air Quality AQ Index Pollutant
Not available.

Snow Depth

Station Depth Elevation

Earthquake Activity

City Distance Mag. Time & Date
Minimum magnitude displayed is 2.5.

Coastal Water Temperatures

Place Temperature

Stations

Nearby Weather Stations

Station Location Temp. Windchill Dew Point Humidity Wind Precip. Elev Updated Type
                   

Watches & Warnings

Winter Weather Advisory
Issued: 2:52 PM CST Feb. 7, 2016 – National Weather Service

... Winter Weather Advisory remains in effect from 7 PM this
evening to noon CST Monday...

* expect snow to develop around 7 PM this evening and then
diminish around noon Monday.

* Total snow accumulations up to 2 inches is expected.

* Winds gusting as high as 40 mph will cause areas of blowing and
drifting snow... especially on ridge tops and in open areas. In
addition... expect poor visibility at times.

* Plan on slippery Road conditions... including the Monday morning
commute.

Precautionary/preparedness actions...

A Winter Weather Advisory for snow means periods of snow will
cause primarily travel difficulties. Be prepared for snow covered
roads and limited visibilities... and use caution while driving.
The latest Road conditions for the state you are calling from can
be obtained by calling 5 1 1.